Time;durP1;ratioP1;P1;durP2;ratioP2;P2;SDS_P1;SDS_P2;PMS_P1;PMS_P2;Temp;Humidity;BMP_temperature;BMP_pressure;BME280_temperature;BME280_humidity;BME280_pressure;Samples;Min_cycle;Max_cycle;Signal;HPM_P1;HPM_P2
2022/12/01 00:00:24;;;;;;;;;;;;;;;;;;2072408;28;20329;-93
2022/12/01 00:01:25;;;;;;;;;;;;;;;;;;2072379;28;20059;-91
2022/12/01 00:02:27;;;;;;;;;;;;;;;;;;2072272;28;20353;-92
2022/12/01 00:03:31;;;;;;;;;;;;;;;;;;2081808;28;20058;-92
2022/12/01 00:04:31;;;;;;;;;;;;;;;;;;2090312;28;20359;-91
2022/12/01 00:05:32;;;;;;;;;;;;;;;;;;2081995;28;19933;-93
2022/12/01 00:06:32;;;;;;;;;;;;;;;;;;2082320;28;19920;-91
2022/12/01 00:07:32;;;;;;;;;;;;;;;;;;2091111;28;19913;-92
2022/12/01 00:08:33;;;;;;;;;;;;;;;;;;2081933;28;19913;-92
2022/12/01 00:11:01;;;;;;;;;;;;;;;;;;2084958;28;19917;-92
2022/12/01 00:12:02;;;;;;;;;;;;;;;;;;2081875;28;19925;-91
2022/12/01 00:13:04;;;;;;;;;;;;;;;;;;2082218;28;19913;-91
2022/12/01 00:14:07;;;;;;;;;;;;;;;;;;2082239;28;19913;-92
2022/12/01 00:15:07;;;;;;;;;;;;;;;;;;2082684;28;19914;-93
2022/12/01 00:16:09;;;;;;;;;;;;;;;;;;2082032;28;20059;-92
2022/12/01 00:17:09;;;;;;;;;;;;;;;;;;2082644;28;19956;-92
2022/12/01 00:18:09;;;;;;;;;;;;;;;;;;2070921;28;19917;-92
2022/12/01 00:19:10;;;;;;;;;;;;;;;;;;2082213;28;20008;-93
2022/12/01 00:20:11;;;;;;;;;;;;;;;;;;2082879;28;19967;-95
2022/12/01 00:21:14;;;;;;;;;;;;;;;;;;2075162;28;19924;-96
2022/12/01 00:22:14;;;;;;;;;;;;;;;;;;2075694;28;20342;-95
2022/12/01 00:23:15;;;;;;;;;;;;;;;;;;2083161;28;19920;-95
2022/12/01 00:24:15;;;;;;;;;;;;;;;;;;2082681;28;19913;-94
2022/12/01 00:25:17;;;;;;;;;;;;;;;;;;2074506;28;19972;-95
2022/12/01 00:26:17;;;;;;;;;;;;;;;;;;2080000;28;20012;-96
2022/12/01 00:27:18;;;;;;;;;;;;;;;;;;2091708;28;19921;-96
2022/12/01 00:28:18;;;;;;;;;;;;;;;;;;2091837;28;20008;-95
2022/12/01 00:29:19;;;;;;;;;;;;;;;;;;2083254;28;19913;-96
2022/12/01 00:30:20;;;;;;;;;;;;;;;;;;2092147;28;19935;-93
2022/12/01 00:31:20;;;;;;;;;;;;;;;;;;2091511;28;20324;-96
2022/12/01 00:32:21;;;;;;;;;;;;;;;;;;2092214;28;19919;-93
2022/12/01 00:33:22;;;;;;;;;;;;;;;;;;2091407;28;20414;-94
2022/12/01 00:34:23;;;;;;;;;;;;;;;;;;2082988;28;20360;-94
2022/12/01 00:35:24;;;;;;;;;;;;;;;;;;2091924;28;19912;-94
2022/12/01 00:36:27;;;;;;;;;;;;;;;;;;2091572;28;19920;-94
2022/12/01 00:37:31;;;;;;;;;;;;;;;;;;2091447;28;20367;-94
2022/12/01 00:38:31;;;;;;;;;;;;;;;;;;2083583;28;19936;-93
2022/12/01 00:39:32;;;;;;;;;;;;;;;;;;2083278;28;20372;-94
2022/12/01 00:40:32;;;;;;;;;;;;;;;;;;2091536;28;20118;-93
2022/12/01 00:41:32;;;;;;;;;;;;;;;;;;2091069;28;19919;-95
2022/12/01 00:42:33;;;;;;;;;;;;;;;;;;2083449;28;19913;-95
2022/12/01 00:43:33;;;;;;;;;;;;;;;;;;2091421;28;19999;-95
2022/12/01 00:44:33;;;;;;;;;;;;;;;;;;2091179;28;20069;-95
2022/12/01 00:45:34;;;;;;;;;;;;;;;;;;2083128;28;20011;-93
2022/12/01 00:46:34;;;;;;;;;;;;;;;;;;2090067;28;20011;-93
2022/12/01 00:47:34;;;;;;;;;;;;;;;;;;2090068;28;19913;-93
2022/12/01 00:48:35;;;;;;;;;;;;;;;;;;2090190;28;20454;-92
2022/12/01 00:49:35;;;;;;;;;;;;;;;;;;2082048;28;19913;-92
2022/12/01 00:50:38;;;;;;;;;;;;;;;;;;2082179;28;19996;-93
2022/12/01 00:51:38;;;;;;;;;;;;;;;;;;2090085;28;19924;-94
2022/12/01 00:52:39;;;;;;;;;;;;;;;;;;2091014;28;20003;-93
2022/12/01 00:53:41;;;;;;;;;;;;;;;;;;2090537;28;20066;-94
2022/12/01 00:54:42;;;;;;;;;;;;;;;;;;1733691;28;10237352;-93
2022/12/01 00:55:42;;;;;;;;;;;;;;;;;;2090554;28;19924;-92
2022/12/01 00:56:43;;;;;;;;;;;;;;;;;;2090798;28;19917;-94
2022/12/01 00:57:52;;;;;;;;;;;;;;;;;;2090845;28;19916;-92
2022/12/01 00:58:52;;;;;;;;;;;;;;;;;;2083521;28;19913;-94
2022/12/01 00:59:53;;;;;;;;;;;;;;;;;;2090336;28;19967;-93
2022/12/01 01:01:02;;;;;;;;;;;;;;;;;;2094357;28;19917;-94
2022/12/01 01:02:07;;;;;;;;;;;;;;;;;;2088179;28;19913;-93
2022/12/01 01:03:09;;;;;;;;;;;;;;;;;;1731792;28;10329412;-93
2022/12/01 01:04:09;;;;;;;;;;;;;;;;;;2090894;28;20417;-92
2022/12/01 01:05:09;;;;;;;;;;;;;;;;;;2091008;28;19917;-94
2022/12/01 01:06:10;;;;;;;;;;;;;;;;;;2090514;28;20023;-93
2022/12/01 01:07:11;;;;;;;;;;;;;;;;;;2090629;28;20426;-94
2022/12/01 01:08:12;;;;;;;;;;;;;;;;;;2090356;28;19919;-94
2022/12/01 01:09:15;;;;;;;;;;;;;;;;;;2082580;28;19978;-94
2022/12/01 01:10:23;;;;;;;;;;;;;;;;;;2090942;28;20050;-94
2022/12/01 01:11:23;;;;;;;;;;;;;;;;;;2090914;28;20043;-93
2022/12/01 01:12:24;;;;;;;;;;;;;;;;;;2090157;28;19917;-91
2022/12/01 01:13:25;;;;;;;;;;;;;;;;;;2089802;28;19919;-92
2022/12/01 01:14:27;;;;;;;;;;;;;;;;;;2089286;28;19972;-92
2022/12/01 01:15:28;;;;;;;;;;;;;;;;;;2089983;28;19916;-92
2022/12/01 01:16:28;;;;;;;;;;;;;;;;;;2089996;28;19912;-92
2022/12/01 01:17:28;;;;;;;;;;;;;;;;;;2081428;28;19920;-91
2022/12/01 01:18:29;;;;;;;;;;;;;;;;;;2089471;28;19913;-91
2022/12/01 01:19:30;;;;;;;;;;;;;;;;;;2089809;28;19921;-92
2022/12/01 01:20:30;;;;;;;;;;;;;;;;;;2089553;28;20288;-92
2022/12/01 01:21:31;;;;;;;;;;;;;;;;;;2089589;28;20007;-92
2022/12/01 01:22:33;;;;;;;;;;;;;;;;;;2089548;28;19913;-92
2022/12/01 01:23:33;;;;;;;;;;;;;;;;;;2089653;28;19988;-93
2022/12/01 01:24:34;;;;;;;;;;;;;;;;;;2090625;28;19917;-93
2022/12/01 01:25:34;;;;;;;;;;;;;;;;;;2089441;28;19967;-92
2022/12/01 01:26:35;;;;;;;;;;;;;;;;;;2081072;28;19917;-92
2022/12/01 01:27:36;;;;;;;;;;;;;;;;;;2089218;28;20003;-92
2022/12/01 01:28:36;;;;;;;;;;;;;;;;;;2089392;28;19912;-91
2022/12/01 01:29:36;;;;;;;;;;;;;;;;;;2089571;28;20333;-92
2022/12/01 01:30:40;;;;;;;;;;;;;;;;;;2089279;28;19965;-92
2022/12/01 01:31:40;;;;;;;;;;;;;;;;;;2089716;28;19912;-91
2022/12/01 01:32:40;;;;;;;;;;;;;;;;;;2089418;28;20082;-92
2022/12/01 01:33:41;;;;;;;;;;;;;;;;;;2089525;28;19987;-92
2022/12/01 01:34:41;;;;;;;;;;;;;;;;;;2089343;28;19953;-92
2022/12/01 01:35:44;;;;;;;;;;;;;;;;;;2081045;28;19913;-93
2022/12/01 01:36:45;;;;;;;;;;;;;;;;;;2081434;28;19925;-92
2022/12/01 01:37:45;;;;;;;;;;;;;;;;;;2088778;28;19916;-92
2022/12/01 01:38:46;;;;;;;;;;;;;;;;;;2089350;28;19913;-91
2022/12/01 01:39:46;;;;;;;;;;;;;;;;;;2089243;28;19913;-92
2022/12/01 01:40:46;;;;;;;;;;;;;;;;;;2089110;28;19974;-92
2022/12/01 01:41:47;;;;;;;;;;;;;;;;;;2089408;28;20016;-92
2022/12/01 01:42:47;;;;;;;;;;;;;;;;;;2089160;28;20010;-91
2022/12/01 01:43:55;;;;;;;;;;;;;;;;;;2081214;28;19917;-92
2022/12/01 01:44:56;;;;;;;;;;;;;;;;;;2081791;28;19913;-92
2022/12/01 01:45:56;;;;;;;;;;;;;;;;;;1740663;28;9999876;-93
2022/12/01 01:46:57;;;;;;;;;;;;;;;;;;2089451;28;20319;-93
2022/12/01 01:47:58;;;;;;;;;;;;;;;;;;2089302;28;19988;-92
2022/12/01 01:49:09;;;;;;;;;;;;;;;;;;2089383;28;19924;-92
2022/12/01 01:50:11;;;;;;;;;;;;;;;;;;2089452;28;19913;-92
2022/12/01 01:51:12;;;;;;;;;;;;;;;;;;2089353;28;19924;-92
2022/12/01 01:52:13;;;;;;;;;;;;;;;;;;2081370;28;19936;-92
2022/12/01 01:53:13;;;;;;;;;;;;;;;;;;2081070;28;19913;-92
2022/12/01 01:54:18;;;;;;;;;;;;;;;;;;2089539;28;20335;-92
2022/12/01 01:55:21;;;;;;;;;;;;;;;;;;2089223;28;20003;-92
2022/12/01 01:56:22;;;;;;;;;;;;;;;;;;2081681;28;19970;-91
2022/12/01 01:57:25;;;;;;;;;;;;;;;;;;2089189;28;20014;-91
2022/12/01 01:58:26;;;;;;;;;;;;;;;;;;2089932;28;20351;-92
2022/12/01 01:59:36;;;;;;;;;;;;;;;;;;2097711;28;19913;-92
2022/12/01 02:00:38;;;;;;;;;;;;;;;;;;2090058;28;20280;-91
2022/12/01 02:01:38;;;;;;;;;;;;;;;;;;2089203;28;19913;-93
2022/12/01 02:02:42;;;;;;;;;;;;;;;;;;2089428;28;19919;-92
2022/12/01 02:03:44;;;;;;;;;;;;;;;;;;2089764;28;20406;-92
2022/12/01 02:04:45;;;;;;;;;;;;;;;;;;2096643;28;19921;-91
2022/12/01 02:05:46;;;;;;;;;;;;;;;;;;2100022;28;19950;-92
2022/12/01 02:06:46;;;;;;;;;;;;;;;;;;2099725;28;19975;-92
2022/12/01 02:07:47;;;;;;;;;;;;;;;;;;2094242;28;19925;-93
2022/12/01 02:08:47;;;;;;;;;;;;;;;;;;2089880;28;19924;-92
2022/12/01 02:09:47;;;;;;;;;;;;;;;;;;2089797;28;19916;-94
2022/12/01 02:11:06;;;;;;;;;;;;;;;;;;2084230;28;20160;-93
2022/12/01 02:12:13;;;;;;;;;;;;;;;;;;2092041;28;19988;-92
2022/12/01 02:13:16;;;;;;;;;;;;;;;;;;2089506;28;20043;-93
2022/12/01 02:14:39;;;;;;;;;;;;;;;;;;2081611;28;19917;-92
2022/12/01 02:15:46;;;;;;;;;;;;;;;;;;2089245;28;19940;-93
2022/12/01 02:16:47;;;;;;;;;;;;;;;;;;2081835;28;19914;-93
2022/12/01 02:17:54;;;;;;;;;;;;;;;;;;2089389;28;19970;-92
2022/12/01 02:19:11;;;;;;;;;;;;;;;;;;2089385;28;19950;-92
2022/12/01 02:20:26;;;;;;;;;;;;;;;;;;2089435;28;19913;-93
2022/12/01 02:21:39;;;;;;;;;;;;;;;;;;2089479;28;19978;-93
2022/12/01 02:22:47;;;;;;;;;;;;;;;;;;2089237;28;19919;-92
2022/12/01 02:24:16;;;;;;;;;;;;;;;;;;2089413;28;19923;-93
2022/12/01 02:25:19;;;;;;;;;;;;;;;;;;2084267;28;19917;-92
2022/12/01 02:26:42;;;;;;;;;;;;;;;;;;1943243;28;10780970;-92
2022/12/01 02:27:56;;;;;;;;;;;;;;;;;;2093967;28;19943;-90
2022/12/01 02:29:16;;;;;;;;;;;;;;;;;;2093973;28;19913;-91
2022/12/01 02:30:25;;;;;;;;;;;;;;;;;;2093398;28;19920;-93
2022/12/01 02:31:31;;;;;;;;;;;;;;;;;;2087214;28;19917;-93
2022/12/01 02:32:31;;;;;;;;;;;;;;;;;;2094315;28;19913;-92
2022/12/01 02:33:35;;;;;;;;;;;;;;;;;;2086376;28;19913;-93
2022/12/01 02:35:05;;;;;;;;;;;;;;;;;;2090953;28;19979;-92
2022/12/01 02:36:35;;;;;;;;;;;;;;;;;;2062296;28;19978;-92
2022/12/01 02:37:51;;;;;;;;;;;;;;;;;;2071752;28;19916;-95
2022/12/01 02:38:55;;;;;;;;;;;;;;;;;;2088186;28;19972;-95
2022/12/01 02:40:05;;;;;;;;;;;;;;;;;;2082706;28;20012;-95
2022/12/01 02:41:19;;;;;;;;;;;;;;;;;;2090357;28;19933;-93
2022/12/01 02:43:46;;;;;;;;;;;;;;;;;;2089405;28;20372;-91
2022/12/01 02:44:47;;;;;;;;;;;;;;;;;;2088502;28;19916;-92
2022/12/01 02:45:50;;;;;;;;;;;;;;;;;;2088837;28;20360;-92
2022/12/01 02:47:04;;;;;;;;;;;;;;;;;;2088822;28;19967;-90
2022/12/01 02:48:10;;;;;;;;;;;;;;;;;;2088800;28;19974;-91
2022/12/01 02:49:21;;;;;;;;;;;;;;;;;;2088460;28;19912;-92
2022/12/01 02:50:22;;;;;;;;;;;;;;;;;;2092970;28;19980;-92
2022/12/01 02:51:24;;;;;;;;;;;;;;;;;;2093379;28;20002;-92
2022/12/01 02:52:25;;;;;;;;;;;;;;;;;;2090917;28;20410;-92
2022/12/01 02:53:26;;;;;;;;;;;;;;;;;;2089123;28;19962;-91
2022/12/01 02:54:28;;;;;;;;;;;;;;;;;;2089120;28;19967;-92
2022/12/01 02:55:29;;;;;;;;;;;;;;;;;;2089137;28;20000;-91
2022/12/01 02:56:29;;;;;;;;;;;;;;;;;;2097336;28;19932;-92
2022/12/01 02:57:30;;;;;;;;;;;;;;;;;;2088860;28;19912;-91
2022/12/01 02:58:30;;;;;;;;;;;;;;;;;;2080708;28;19960;-91
2022/12/01 02:59:31;;;;;;;;;;;;;;;;;;2088814;28;20399;-90
2022/12/01 03:00:31;;;;;;;;;;;;;;;;;;2088856;28;19979;-93
2022/12/01 03:01:51;;;;;;;;;;;;;;;;;;2080660;28;19920;-94
2022/12/01 03:02:51;;;;;;;;;;;;;;;;;;2083381;28;19921;-92
2022/12/01 03:03:54;;;;;;;;;;;;;;;;;;2088905;28;20252;-92
2022/12/01 03:05:02;;;;;;;;;;;;;;;;;;2088625;28;19965;-93
2022/12/01 03:06:12;;;;;;;;;;;;;;;;;;2081442;28;19913;-92
2022/12/01 03:07:15;;;;;;;;;;;;;;;;;;2088635;28;19990;-92
2022/12/01 03:08:31;;;;;;;;;;;;;;;;;;2089125;28;19913;-93
2022/12/01 03:09:32;;;;;;;;;;;;;;;;;;2088821;28;19963;-92
2022/12/01 03:10:47;;;;;;;;;;;;;;;;;;2088778;28;20371;-90
2022/12/01 03:11:50;;;;;;;;;;;;;;;;;;2095141;28;19967;-93
2022/12/01 03:12:53;;;;;;;;;;;;;;;;;;2088722;28;20330;-93
2022/12/01 03:13:59;;;;;;;;;;;;;;;;;;2080587;28;19972;-93
2022/12/01 03:15:08;;;;;;;;;;;;;;;;;;2081263;28;19914;-92
2022/12/01 03:16:11;;;;;;;;;;;;;;;;;;2081485;28;20406;-92
2022/12/01 03:17:16;;;;;;;;;;;;;;;;;;2080587;28;19913;-92
2022/12/01 03:18:30;;;;;;;;;;;;;;;;;;2088553;28;19921;-92
2022/12/01 03:19:52;;;;;;;;;;;;;;;;;;2088486;28;19913;-92
2022/12/01 03:21:11;;;;;;;;;;;;;;;;;;2088588;28;19913;-92
2022/12/01 03:22:25;;;;;;;;;;;;;;;;;;2091033;28;19963;-92
2022/12/01 03:23:28;;;;;;;;;;;;;;;;;;2088576;28;19913;-92
2022/12/01 03:24:31;;;;;;;;;;;;;;;;;;2088565;28;19924;-92
2022/12/01 03:25:32;;;;;;;;;;;;;;;;;;2080642;28;20008;-92
2022/12/01 03:26:34;;;;;;;;;;;;;;;;;;2080053;28;19928;-92
2022/12/01 03:27:36;;;;;;;;;;;;;;;;;;2080632;28;19917;-91
2022/12/01 03:28:39;;;;;;;;;;;;;;;;;;2080438;28;19972;-93
2022/12/01 03:29:42;;;;;;;;;;;;;;;;;;2088567;28;19921;-91
2022/12/01 03:30:44;;;;;;;;;;;;;;;;;;2088386;28;19929;-92
2022/12/01 03:31:52;;;;;;;;;;;;;;;;;;2088726;28;19963;-93
2022/12/01 03:32:59;;;;;;;;;;;;;;;;;;2088485;28;19921;-92
2022/12/01 03:34:05;;;;;;;;;;;;;;;;;;2088667;28;19913;-90
2022/12/01 03:35:07;;;;;;;;;;;;;;;;;;2088726;28;19960;-91
2022/12/01 03:36:10;;;;;;;;;;;;;;;;;;2088835;28;20058;-90
2022/12/01 03:37:17;;;;;;;;;;;;;;;;;;2088368;28;20475;-92
2022/12/01 03:38:20;;;;;;;;;;;;;;;;;;2088223;28;19997;-92
2022/12/01 03:39:24;;;;;;;;;;;;;;;;;;2088551;28;19916;-91
2022/12/01 03:40:26;;;;;;;;;;;;;;;;;;2088286;28;19959;-92
2022/12/01 03:41:28;;;;;;;;;;;;;;;;;;2088431;28;19925;-93
2022/12/01 03:42:37;;;;;;;;;;;;;;;;;;1725566;28;10220694;-91
2022/12/01 03:43:40;;;;;;;;;;;;;;;;;;2081018;28;19913;-91
2022/12/01 03:44:46;;;;;;;;;;;;;;;;;;2088147;28;20379;-92
2022/12/01 03:45:47;;;;;;;;;;;;;;;;;;2088344;28;19917;-92
2022/12/01 03:46:52;;;;;;;;;;;;;;;;;;2080200;28;20438;-92
2022/12/01 03:47:54;;;;;;;;;;;;;;;;;;2081140;28;19917;-93
2022/12/01 03:48:55;;;;;;;;;;;;;;;;;;2088533;28;19923;-90
2022/12/01 03:49:55;;;;;;;;;;;;;;;;;;2088388;28;19913;-92
2022/12/01 03:51:02;;;;;;;;;;;;;;;;;;2080108;28;19913;-92
2022/12/01 03:52:14;;;;;;;;;;;;;;;;;;2081506;28;19932;-93
2022/12/01 03:53:18;;;;;;;;;;;;;;;;;;2088417;28;19925;-92
2022/12/01 03:54:21;;;;;;;;;;;;;;;;;;2080484;28;20003;-93
2022/12/01 03:55:24;;;;;;;;;;;;;;;;;;2080878;28;20319;-90
2022/12/01 03:56:29;;;;;;;;;;;;;;;;;;2088459;28;19959;-92
2022/12/01 03:57:50;;;;;;;;;;;;;;;;;;2088462;28;19913;-91
2022/12/01 03:58:51;;;;;;;;;;;;;;;;;;2071414;28;19929;-90
2022/12/01 03:59:52;;;;;;;;;;;;;;;;;;2084982;28;19921;-91
2022/12/01 04:00:56;;;;;;;;;;;;;;;;;;2088436;28;19913;-91
2022/12/01 04:01:56;;;;;;;;;;;;;;;;;;2088519;28;19940;-92
2022/12/01 04:02:58;;;;;;;;;;;;;;;;;;2088204;28;19950;-91
2022/12/01 04:04:02;;;;;;;;;;;;;;;;;;2088475;28;20026;-90
2022/12/01 04:05:08;;;;;;;;;;;;;;;;;;2087901;28;20431;-92
2022/12/01 04:06:08;;;;;;;;;;;;;;;;;;2088926;28;20010;-92
2022/12/01 04:07:12;;;;;;;;;;;;;;;;;;2080207;28;19921;-90
2022/12/01 04:08:12;;;;;;;;;;;;;;;;;;2080655;28;19914;-92
2022/12/01 04:09:13;;;;;;;;;;;;;;;;;;2089603;28;19943;-92
2022/12/01 04:10:13;;;;;;;;;;;;;;;;;;2088879;28;20000;-90
2022/12/01 04:12:32;;;;;;;;;;;;;;;;;;2088664;28;19917;-91
2022/12/01 04:13:33;;;;;;;;;;;;;;;;;;2088321;28;19913;-92
2022/12/01 04:14:33;;;;;;;;;;;;;;;;;;2088107;28;20363;-93
2022/12/01 04:15:33;;;;;;;;;;;;;;;;;;2088437;28;20026;-92
2022/12/01 04:16:37;;;;;;;;;;;;;;;;;;2080278;28;19924;-93
2022/12/01 04:17:37;;;;;;;;;;;;;;;;;;2080596;28;19913;-92
2022/12/01 04:18:38;;;;;;;;;;;;;;;;;;2080142;28;20370;-94
2022/12/01 04:19:38;;;;;;;;;;;;;;;;;;2088727;28;19913;-92
2022/12/01 04:20:38;;;;;;;;;;;;;;;;;;2088429;28;19919;-92
2022/12/01 04:21:39;;;;;;;;;;;;;;;;;;2088980;28;19913;-93
2022/12/01 04:22:40;;;;;;;;;;;;;;;;;;2088827;28;19939;-92
2022/12/01 04:24:59;;;;;;;;;;;;;;;;;;2088970;28;19925;-92
2022/12/01 04:26:03;;;;;;;;;;;;;;;;;;2088609;28;19948;-92
2022/12/01 04:27:03;;;;;;;;;;;;;;;;;;2088342;28;19978;-91
2022/12/01 04:28:03;;;;;;;;;;;;;;;;;;2088126;28;20204;-92
2022/12/01 04:29:05;;;;;;;;;;;;;;;;;;2088198;28;19916;-91
2022/12/01 04:30:06;;;;;;;;;;;;;;;;;;2088089;28;19913;-92
2022/12/01 04:31:07;;;;;;;;;;;;;;;;;;2088127;28;20276;-91
2022/12/01 04:32:07;;;;;;;;;;;;;;;;;;2088147;28;19913;-92
2022/12/01 04:33:07;;;;;;;;;;;;;;;;;;2088318;28;20008;-91
2022/12/01 04:34:11;;;;;;;;;;;;;;;;;;2087922;28;19913;-91
2022/12/01 04:35:11;;;;;;;;;;;;;;;;;;2089163;28;20050;-93
2022/12/01 04:36:12;;;;;;;;;;;;;;;;;;2088937;28;19912;-93
2022/12/01 04:37:12;;;;;;;;;;;;;;;;;;2088998;28;19932;-93
2022/12/01 04:38:12;;;;;;;;;;;;;;;;;;1737852;28;10069592;-93
2022/12/01 04:39:13;;;;;;;;;;;;;;;;;;2080449;28;20352;-92
2022/12/01 04:40:13;;;;;;;;;;;;;;;;;;2080529;28;19999;-92
2022/12/01 04:41:13;;;;;;;;;;;;;;;;;;2086592;28;20018;-91
2022/12/01 04:42:14;;;;;;;;;;;;;;;;;;2086000;28;20465;-90
2022/12/01 04:43:14;;;;;;;;;;;;;;;;;;2082773;28;19953;-93
2022/12/01 04:44:15;;;;;;;;;;;;;;;;;;2089014;28;19924;-93
2022/12/01 04:45:17;;;;;;;;;;;;;;;;;;2080887;28;20264;-94
2022/12/01 04:46:18;;;;;;;;;;;;;;;;;;2087995;28;19913;-91
2022/12/01 04:47:18;;;;;;;;;;;;;;;;;;2091802;28;19923;-90
2022/12/01 04:48:18;;;;;;;;;;;;;;;;;;2089488;28;20008;-91
2022/12/01 04:49:19;;;;;;;;;;;;;;;;;;2097372;28;19980;-91
2022/12/01 04:50:19;;;;;;;;;;;;;;;;;;2098764;28;19939;-89
2022/12/01 04:51:21;;;;;;;;;;;;;;;;;;2097567;28;19901;-91
2022/12/01 04:52:21;;;;;;;;;;;;;;;;;;2099106;28;19929;-91
2022/12/01 04:53:21;;;;;;;;;;;;;;;;;;2085208;28;19992;-91
2022/12/01 04:54:24;;;;;;;;;;;;;;;;;;2090952;28;19913;-92
2022/12/01 04:55:24;;;;;;;;;;;;;;;;;;2090068;28;20120;-91
2022/12/01 04:56:25;;;;;;;;;;;;;;;;;;2081441;28;19917;-90
2022/12/01 04:57:25;;;;;;;;;;;;;;;;;;2089569;28;20362;-90
2022/12/01 04:58:26;;;;;;;;;;;;;;;;;;2090218;28;19991;-89
2022/12/01 04:59:26;;;;;;;;;;;;;;;;;;2089643;28;20331;-89
2022/12/01 05:00:26;;;;;;;;;;;;;;;;;;2089651;28;19956;-90
2022/12/01 05:01:27;;;;;;;;;;;;;;;;;;2089577;28;20348;-91
2022/12/01 05:02:27;;;;;;;;;;;;;;;;;;2097720;28;19912;-92
2022/12/01 05:03:28;;;;;;;;;;;;;;;;;;2097816;28;20011;-91
2022/12/01 05:04:30;;;;;;;;;;;;;;;;;;2089453;28;19917;-91
2022/12/01 05:05:30;;;;;;;;;;;;;;;;;;2089358;28;19917;-90
2022/12/01 05:06:30;;;;;;;;;;;;;;;;;;2081348;28;19913;-90
2022/12/01 05:07:31;;;;;;;;;;;;;;;;;;2083646;28;19913;-92
2022/12/01 05:08:31;;;;;;;;;;;;;;;;;;2084782;28;19920;-90
2022/12/01 05:09:32;;;;;;;;;;;;;;;;;;2090587;28;19931;-92
2022/12/01 05:10:35;;;;;;;;;;;;;;;;;;2098434;28;20414;-91
2022/12/01 05:11:36;;;;;;;;;;;;;;;;;;2095273;28;20017;-93
2022/12/01 05:12:36;;;;;;;;;;;;;;;;;;2096940;28;19947;-92
2022/12/01 05:13:40;;;;;;;;;;;;;;;;;;2092838;28;19919;-93
2022/12/01 05:14:40;;;;;;;;;;;;;;;;;;2090247;28;19920;-92
2022/12/01 05:15:41;;;;;;;;;;;;;;;;;;2090387;28;20003;-92
2022/12/01 05:16:41;;;;;;;;;;;;;;;;;;2090221;28;19939;-91
2022/12/01 05:17:42;;;;;;;;;;;;;;;;;;2090024;28;20355;-93
2022/12/01 05:18:42;;;;;;;;;;;;;;;;;;2090084;28;19913;-93
2022/12/01 05:21:02;;;;;;;;;;;;;;;;;;2096052;28;19999;-92
2022/12/01 05:22:05;;;;;;;;;;;;;;;;;;2089936;28;19927;-93
2022/12/01 05:23:05;;;;;;;;;;;;;;;;;;2090174;28;19998;-92
2022/12/01 05:24:06;;;;;;;;;;;;;;;;;;2090105;28;19979;-91
2022/12/01 05:25:07;;;;;;;;;;;;;;;;;;2081485;28;20026;-92
2022/12/01 05:26:08;;;;;;;;;;;;;;;;;;2089615;28;19920;-92
2022/12/01 05:27:08;;;;;;;;;;;;;;;;;;2089683;28;19913;-93
2022/12/01 05:28:12;;;;;;;;;;;;;;;;;;1856117;28;10144187;-91
2022/12/01 05:29:15;;;;;;;;;;;;;;;;;;2089843;28;19920;-91
2022/12/01 05:30:15;;;;;;;;;;;;;;;;;;2089532;28;20350;-91
2022/12/01 05:31:15;;;;;;;;;;;;;;;;;;2089539;28;20058;-90
2022/12/01 05:32:16;;;;;;;;;;;;;;;;;;2089698;28;19913;-93
2022/12/01 05:33:16;;;;;;;;;;;;;;;;;;2089472;28;20360;-92
2022/12/01 05:34:17;;;;;;;;;;;;;;;;;;2089164;28;19913;-89
2022/12/01 05:35:17;;;;;;;;;;;;;;;;;;2089488;28;19917;-90
2022/12/01 05:36:17;;;;;;;;;;;;;;;;;;2089494;28;20390;-90
2022/12/01 05:37:17;;;;;;;;;;;;;;;;;;2089521;28;19939;-91
2022/12/01 05:38:18;;;;;;;;;;;;;;;;;;2089452;28;20284;-90
2022/12/01 05:39:19;;;;;;;;;;;;;;;;;;2089522;28;19920;-93
2022/12/01 05:40:19;;;;;;;;;;;;;;;;;;2081048;28;19971;-91
2022/12/01 05:41:19;;;;;;;;;;;;;;;;;;2081121;28;19913;-93
2022/12/01 05:42:20;;;;;;;;;;;;;;;;;;2089479;28;19995;-91
2022/12/01 05:43:21;;;;;;;;;;;;;;;;;;2089143;28;19913;-91
2022/12/01 05:44:21;;;;;;;;;;;;;;;;;;2089586;28;20319;-91
2022/12/01 05:45:22;;;;;;;;;;;;;;;;;;2089119;28;19924;-92
2022/12/01 05:46:22;;;;;;;;;;;;;;;;;;2089667;28;19921;-91
2022/12/01 05:47:24;;;;;;;;;;;;;;;;;;2089379;28;19917;-90
2022/12/01 05:48:24;;;;;;;;;;;;;;;;;;2089342;28;19939;-91
2022/12/01 05:49:24;;;;;;;;;;;;;;;;;;2097853;28;20355;-92
2022/12/01 05:50:26;;;;;;;;;;;;;;;;;;2090025;28;19917;-93
2022/12/01 05:51:26;;;;;;;;;;;;;;;;;;2081722;28;19913;-94
2022/12/01 05:52:26;;;;;;;;;;;;;;;;;;2085142;28;20038;-93
2022/12/01 05:53:26;;;;;;;;;;;;;;;;;;2093850;28;19912;-92
2022/12/01 05:54:28;;;;;;;;;;;;;;;;;;2093612;28;19912;-91
2022/12/01 05:55:28;;;;;;;;;;;;;;;;;;2087527;28;19963;-90
2022/12/01 05:56:29;;;;;;;;;;;;;;;;;;2090826;28;19909;-89
2022/12/01 05:57:30;;;;;;;;;;;;;;;;;;2090238;28;19913;-88
2022/12/01 05:58:30;;;;;;;;;;;;;;;;;;2098942;28;19937;-91
2022/12/01 05:59:30;;;;;;;;;;;;;;;;;;2091072;28;19928;-91
2022/12/01 06:00:31;;;;;;;;;;;;;;;;;;2093852;28;19920;-93
2022/12/01 06:01:31;;;;;;;;;;;;;;;;;;2090370;28;19944;-92
2022/12/01 06:02:31;;;;;;;;;;;;;;;;;;2081723;28;19967;-93
2022/12/01 06:03:32;;;;;;;;;;;;;;;;;;2082138;28;19913;-93
2022/12/01 06:04:32;;;;;;;;;;;;;;;;;;2081871;28;19917;-92
2022/12/01 06:05:32;;;;;;;;;;;;;;;;;;2081549;28;19924;-93
2022/12/01 06:06:33;;;;;;;;;;;;;;;;;;2081637;28;19913;-93
2022/12/01 06:07:34;;;;;;;;;;;;;;;;;;2081474;28;19936;-92
2022/12/01 06:08:34;;;;;;;;;;;;;;;;;;2082315;28;20141;-95
2022/12/01 06:09:35;;;;;;;;;;;;;;;;;;2090924;28;19917;-95
2022/12/01 06:10:35;;;;;;;;;;;;;;;;;;2089968;28;19920;-93
2022/12/01 06:11:35;;;;;;;;;;;;;;;;;;2081900;28;19913;-95
2022/12/01 06:12:36;;;;;;;;;;;;;;;;;;2082638;28;19913;-92
2022/12/01 06:13:37;;;;;;;;;;;;;;;;;;2081807;28;19975;-95
2022/12/01 06:14:37;;;;;;;;;;;;;;;;;;2082557;28;19971;-95
2022/12/01 06:15:38;;;;;;;;;;;;;;;;;;2090010;28;20407;-95
2022/12/01 06:16:38;;;;;;;;;;;;;;;;;;2090046;28;19952;-94
2022/12/01 06:17:38;;;;;;;;;;;;;;;;;;2082270;28;19920;-94
2022/12/01 06:18:39;;;;;;;;;;;;;;;;;;2090266;28;19913;-94
2022/12/01 06:19:39;;;;;;;;;;;;;;;;;;2090231;28;19990;-95
2022/12/01 06:20:40;;;;;;;;;;;;;;;;;;2082343;28;19957;-94
2022/12/01 06:21:40;;;;;;;;;;;;;;;;;;2090365;28;19913;-94
2022/12/01 06:22:40;;;;;;;;;;;;;;;;;;2090410;28;19916;-93
2022/12/01 06:23:41;;;;;;;;;;;;;;;;;;2081805;28;19943;-94
2022/12/01 06:24:41;;;;;;;;;;;;;;;;;;2090139;28;20332;-94
2022/12/01 06:25:44;;;;;;;;;;;;;;;;;;2090495;28;20472;-94
2022/12/01 06:26:45;;;;;;;;;;;;;;;;;;2083428;28;19994;-93
2022/12/01 06:27:45;;;;;;;;;;;;;;;;;;2090621;28;20423;-95
2022/12/01 06:28:48;;;;;;;;;;;;;;;;;;2090601;28;19913;-94
2022/12/01 06:29:49;;;;;;;;;;;;;;;;;;2081158;28;20165;-91
2022/12/01 06:30:49;;;;;;;;;;;;;;;;;;2089134;28;19913;-92
2022/12/01 06:31:50;;;;;;;;;;;;;;;;;;2090349;28;20375;-90
2022/12/01 06:32:50;;;;;;;;;;;;;;;;;;2083252;28;19920;-89
2022/12/01 06:33:50;;;;;;;;;;;;;;;;;;2091882;28;20427;-88
2022/12/01 06:34:50;;;;;;;;;;;;;;;;;;2089156;28;19913;-90
2022/12/01 06:36:18;;;;;;;;;;;;;;;;;;2089618;28;19913;-89
2022/12/01 06:37:18;;;;;;;;;;;;;;;;;;2088106;28;19913;-91
2022/12/01 06:38:18;;;;;;;;;;;;;;;;;;2089179;28;19912;-91
2022/12/01 06:39:18;;;;;;;;;;;;;;;;;;2088941;28;19917;-88
2022/12/01 06:40:19;;;;;;;;;;;;;;;;;;2081137;28;20319;-90
2022/12/01 06:41:27;;;;;;;;;;;;;;;;;;2088960;28;19924;-90
2022/12/01 06:42:31;;;;;;;;;;;;;;;;;;2081968;28;19997;-91
2022/12/01 06:43:31;;;;;;;;;;;;;;;;;;2089881;28;19919;-92
2022/12/01 06:44:31;;;;;;;;;;;;;;;;;;2089139;28;20008;-91
2022/12/01 06:45:32;;;;;;;;;;;;;;;;;;2088973;28;19999;-91
2022/12/01 06:46:32;;;;;;;;;;;;;;;;;;2083556;28;19905;-91
2022/12/01 06:47:32;;;;;;;;;;;;;;;;;;2088958;28;19912;-90
2022/12/01 06:48:33;;;;;;;;;;;;;;;;;;2089548;28;19943;-91
2022/12/01 06:49:33;;;;;;;;;;;;;;;;;;2089586;28;19913;-92
2022/12/01 06:50:34;;;;;;;;;;;;;;;;;;2081666;28;19916;-91
2022/12/01 06:51:34;;;;;;;;;;;;;;;;;;2089035;28;20053;-91
2022/12/01 06:52:35;;;;;;;;;;;;;;;;;;2089222;28;19923;-89
2022/12/01 06:53:35;;;;;;;;;;;;;;;;;;2089483;28;20410;-90
2022/12/01 06:54:36;;;;;;;;;;;;;;;;;;2080908;28;20357;-92
2022/12/01 06:55:37;;;;;;;;;;;;;;;;;;2089259;28;20431;-92
2022/12/01 06:56:37;;;;;;;;;;;;;;;;;;2089113;28;20382;-92
2022/12/01 06:57:38;;;;;;;;;;;;;;;;;;2089183;28;19953;-92
2022/12/01 06:58:38;;;;;;;;;;;;;;;;;;2089529;28;19919;-91
2022/12/01 06:59:38;;;;;;;;;;;;;;;;;;2088985;28;19959;-92
2022/12/01 07:00:38;;;;;;;;;;;;;;;;;;2089456;28;19913;-91
2022/12/01 07:01:39;;;;;;;;;;;;;;;;;;2089762;28;19935;-90
2022/12/01 07:02:39;;;;;;;;;;;;;;;;;;2089946;28;19964;-92
2022/12/01 07:03:40;;;;;;;;;;;;;;;;;;2090180;28;19924;-92
2022/12/01 07:04:40;;;;;;;;;;;;;;;;;;2089346;28;19952;-92
2022/12/01 07:05:40;;;;;;;;;;;;;;;;;;2089130;28;19916;-93
2022/12/01 07:06:41;;;;;;;;;;;;;;;;;;2089619;28;19912;-94
2022/12/01 07:07:41;;;;;;;;;;;;;;;;;;2089047;28;19923;-92
2022/12/01 07:08:42;;;;;;;;;;;;;;;;;;2088943;28;19913;-93
2022/12/01 07:09:42;;;;;;;;;;;;;;;;;;2080590;28;20408;-92
2022/12/01 07:10:42;;;;;;;;;;;;;;;;;;2079800;28;19913;-92
2022/12/01 07:11:42;;;;;;;;;;;;;;;;;;2081302;28;19921;-92
2022/12/01 07:12:43;;;;;;;;;;;;;;;;;;2080468;28;19948;-93